createdAt,value
2023-01-25T00:01:55.819Z,7.00
2023-01-25T00:04:24.932Z,7.00
2023-01-25T00:06:53.597Z,6.90
2023-01-25T00:09:25.361Z,6.90
2023-01-25T00:11:56.663Z,6.90
2023-01-25T00:14:25.917Z,6.80
2023-01-25T00:16:54.525Z,6.80
2023-01-25T00:19:24.047Z,6.70
2023-01-25T00:21:52.749Z,6.70
2023-01-25T00:24:23.090Z,6.70
2023-01-25T00:26:51.819Z,6.80
2023-01-25T00:29:21.824Z,7.20
2023-01-25T00:32:03.611Z,7.30
2023-01-25T00:34:50.540Z,7.20
2023-01-25T00:37:26.819Z,7.00
2023-01-25T00:39:55.345Z,6.90
2023-01-25T00:42:23.950Z,6.90
2023-01-25T00:44:53.879Z,6.80
2023-01-25T00:47:22.484Z,6.70
2023-01-25T00:49:51.149Z,6.70
2023-01-25T00:52:22.392Z,6.70
2023-01-25T00:54:53.652Z,6.60
2023-01-25T00:57:22.266Z,6.60
2023-01-25T00:59:50.769Z,6.60
2023-01-25T01:02:20.756Z,6.60
2023-01-25T01:04:49.338Z,6.60
2023-01-25T01:07:17.956Z,6.60
2023-01-25T01:09:46.483Z,6.70
2023-01-25T01:12:14.985Z,6.70
2023-01-25T01:14:43.493Z,6.70
2023-01-25T01:17:12.061Z,6.70
2023-01-25T01:19:41.940Z,6.70
2023-01-25T01:22:10.567Z,6.80
2023-01-25T01:24:39.367Z,6.80
2023-01-25T01:27:07.936Z,6.80
2023-01-25T01:29:37.152Z,6.80
2023-01-25T01:32:06.337Z,6.80
2023-01-25T01:34:35.233Z,6.70
2023-01-25T01:37:05.176Z,6.70
2023-01-25T01:39:34.037Z,6.70
2023-01-25T01:42:02.560Z,6.70
2023-01-25T01:44:48.580Z,6.80
2023-01-25T01:47:21.280Z,7.20
2023-01-25T01:49:53.949Z,7.20
2023-01-25T01:52:26.787Z,7.20
2023-01-25T01:54:57.666Z,7.20
2023-01-25T01:57:28.335Z,7.10
2023-01-25T01:59:59.297Z,7.10
2023-01-25T02:02:28.366Z,6.90
2023-01-25T02:05:00.000Z,6.80
2023-01-25T02:07:35.151Z,6.80
2023-01-25T02:10:05.306Z,6.80
2023-01-25T02:12:34.093Z,6.70
2023-01-25T02:15:02.581Z,6.70
2023-01-25T02:17:32.375Z,6.60
2023-01-25T02:20:05.061Z,6.60
2023-01-25T02:22:41.069Z,6.50
2023-01-25T02:25:12.318Z,6.60
2023-01-25T02:27:43.979Z,6.70
2023-01-25T02:30:12.895Z,6.90
2023-01-25T02:32:41.483Z,7.00
2023-01-25T02:35:20.217Z,7.10
2023-01-25T02:37:48.742Z,7.10
2023-01-25T02:40:19.404Z,7.10
2023-01-25T02:42:48.040Z,7.10
2023-01-25T02:45:19.052Z,7.30
2023-01-25T02:47:48.722Z,7.40
2023-01-25T02:50:17.665Z,7.40
2023-01-25T02:52:47.329Z,7.30
2023-01-25T02:55:15.870Z,7.20
2023-01-25T02:57:45.785Z,7.10
2023-01-25T03:00:14.796Z,7.20
2023-01-25T03:02:43.420Z,7.40
2023-01-25T03:05:11.973Z,7.50
2023-01-25T03:07:40.549Z,7.60
2023-01-25T03:10:10.311Z,7.70
2023-01-25T03:12:38.849Z,7.80
2023-01-25T03:15:11.820Z,7.90
2023-01-25T03:17:40.435Z,7.80
2023-01-25T03:20:09.823Z,7.80
2023-01-25T03:22:38.296Z,8.00
2023-01-25T03:25:07.977Z,7.90
2023-01-25T03:27:36.621Z,7.90
2023-01-25T03:30:05.921Z,7.80
2023-01-25T03:32:35.907Z,7.80
2023-01-25T03:35:04.777Z,7.60
2023-01-25T03:37:34.224Z,7.70
2023-01-25T03:40:03.108Z,7.80
2023-01-25T03:42:31.760Z,8.00
2023-01-25T03:45:00.243Z,8.20
2023-01-25T03:47:28.720Z,8.30
2023-01-25T03:49:58.553Z,8.40
2023-01-25T03:52:27.546Z,8.50
2023-01-25T03:54:56.069Z,8.50
2023-01-25T03:57:24.695Z,8.40
2023-01-25T03:59:53.163Z,8.40
2023-01-25T04:02:24.604Z,8.40
2023-01-25T04:04:53.132Z,8.40
2023-01-25T04:07:22.978Z,8.40
2023-01-25T04:09:52.166Z,8.50
2023-01-25T04:12:20.693Z,8.40
2023-01-25T04:14:49.193Z,8.40
2023-01-25T04:17:17.787Z,8.30
2023-01-25T04:19:46.358Z,8.30
2023-01-25T04:22:14.953Z,8.20
2023-01-25T04:24:44.901Z,8.30
2023-01-25T04:27:13.418Z,8.20
2023-01-25T04:29:42.270Z,8.20
2023-01-25T04:32:10.904Z,8.30
2023-01-25T04:34:39.483Z,8.30
2023-01-25T04:37:08.001Z,8.40
2023-01-25T04:39:36.543Z,8.40
2023-01-25T04:42:06.634Z,8.50
2023-01-25T04:44:35.135Z,8.50
2023-01-25T04:47:03.862Z,8.60
2023-01-25T04:49:32.603Z,8.70
2023-01-25T04:52:01.115Z,8.60
2023-01-25T04:54:29.605Z,8.60
2023-01-25T04:56:58.131Z,8.70
2023-01-25T04:59:28.016Z,8.70
2023-01-25T05:01:56.571Z,8.60
2023-01-25T05:04:25.197Z,8.60
2023-01-25T05:06:53.719Z,8.40
2023-01-25T05:09:22.296Z,8.30
2023-01-25T05:11:50.828Z,8.30
2023-01-25T05:14:19.357Z,8.20
2023-01-25T05:16:49.282Z,8.20
2023-01-25T05:19:17.844Z,8.10
2023-01-25T05:22:01.236Z,8.10
2023-01-25T05:24:31.043Z,8.10
2023-01-25T05:27:01.655Z,8.20
2023-01-25T05:29:31.082Z,8.20
2023-01-25T05:32:01.103Z,8.20
2023-01-25T05:34:29.665Z,8.10
2023-01-25T05:36:58.600Z,8.00
2023-01-25T05:39:27.456Z,8.00
2023-01-25T05:41:56.064Z,7.90
2023-01-25T05:44:24.861Z,7.80
2023-01-25T05:46:53.502Z,7.80
2023-01-25T05:49:23.377Z,7.80
2023-01-25T05:51:51.888Z,7.80
2023-01-25T05:54:20.538Z,8.00
2023-01-25T05:56:50.582Z,8.00
2023-01-25T05:59:19.218Z,8.10
2023-01-25T06:01:47.724Z,8.00
2023-01-25T06:04:17.037Z,7.80
2023-01-25T06:06:46.935Z,7.70
2023-01-25T06:09:15.660Z,7.70
2023-01-25T06:11:45.991Z,7.50
2023-01-25T06:14:14.724Z,7.50
2023-01-25T06:16:43.286Z,7.40
2023-01-25T06:19:14.519Z,7.30
2023-01-25T06:21:43.144Z,7.30
2023-01-25T06:24:13.342Z,7.40
2023-01-25T06:26:42.113Z,7.40
2023-01-25T06:29:10.853Z,7.40
2023-01-25T06:31:39.447Z,7.40
2023-01-25T06:34:09.580Z,7.20
2023-01-25T06:36:38.230Z,6.90
2023-01-25T06:39:06.859Z,6.30
2023-01-25T06:41:37.056Z,5.60
2023-01-25T06:44:05.740Z,5.10
2023-01-25T06:46:34.833Z,4.70
2023-01-25T06:49:03.714Z,4.10
2023-01-25T06:51:32.297Z,3.90
2023-01-25T06:54:04.407Z,3.70
2023-01-25T06:56:33.784Z,3.50
2023-01-25T06:59:03.681Z,3.50
2023-01-25T07:01:33.124Z,3.50
2023-01-25T07:04:01.697Z,3.30
2023-01-25T07:06:34.354Z,3.30
2023-01-25T07:09:06.672Z,3.30
2023-01-25T07:11:35.312Z,3.30
2023-01-25T07:14:05.341Z,3.30
2023-01-25T07:16:37.027Z,3.10
2023-01-25T07:19:06.126Z,3.20
2023-01-25T07:21:35.319Z,3.20
2023-01-25T07:24:05.993Z,3.20
2023-01-25T07:26:34.583Z,3.00
2023-01-25T07:29:04.613Z,3.00
2023-01-25T07:31:33.219Z,2.90
2023-01-25T07:34:01.796Z,3.00
2023-01-25T07:36:30.332Z,2.90
2023-01-25T07:38:59.584Z,2.70
2023-01-25T07:41:28.273Z,2.80
2023-01-25T07:43:56.947Z,2.90
2023-01-25T07:46:26.825Z,2.80
2023-01-25T07:48:55.636Z,2.80
2023-01-25T07:51:25.181Z,3.00
2023-01-25T07:53:55.022Z,3.00
2023-01-25T07:56:25.370Z,3.10
2023-01-25T07:58:55.082Z,3.10
2023-01-25T08:01:25.074Z,3.30
2023-01-25T08:03:56.264Z,3.30
2023-01-25T08:06:27.575Z,3.40
2023-01-25T08:08:56.560Z,3.40
2023-01-25T08:11:27.082Z,3.50
2023-01-25T08:14:14.448Z,3.40
2023-01-25T08:16:45.840Z,3.50
2023-01-25T08:19:16.120Z,3.40
2023-01-25T08:21:44.828Z,3.30
2023-01-25T08:24:15.212Z,3.20
2023-01-25T08:26:45.770Z,3.20
2023-01-25T08:29:14.599Z,3.20
2023-01-25T08:31:48.478Z,3.30
2023-01-25T08:34:18.439Z,3.40
2023-01-25T08:36:46.975Z,3.50
2023-01-25T08:39:15.517Z,3.50
2023-01-25T08:41:45.653Z,3.60
2023-01-25T08:44:14.416Z,3.60
2023-01-25T08:46:42.942Z,3.60
2023-01-25T08:49:11.930Z,3.60
2023-01-25T08:51:41.891Z,3.60
2023-01-25T08:54:13.262Z,3.60
2023-01-25T08:56:42.457Z,3.60
2023-01-25T08:59:12.639Z,3.60
2023-01-25T09:01:41.299Z,3.70
2023-01-25T09:04:09.924Z,3.80
2023-01-25T09:06:38.692Z,3.90
2023-01-25T09:09:09.202Z,4.00
2023-01-25T09:11:38.305Z,4.00
2023-01-25T09:14:06.998Z,4.00
2023-01-25T09:16:35.583Z,4.00
2023-01-25T09:19:05.897Z,4.00
2023-01-25T09:21:35.083Z,4.10
2023-01-25T09:24:06.987Z,4.10
2023-01-25T09:26:39.277Z,4.10
2023-01-25T09:29:08.740Z,4.10
2023-01-25T09:31:40.567Z,4.20
2023-01-25T09:34:10.088Z,4.20
2023-01-25T09:36:38.712Z,4.20
2023-01-25T09:39:07.911Z,4.30
2023-01-25T09:42:14.698Z,4.30
2023-01-25T09:45:03.191Z,4.30
2023-01-25T09:47:38.766Z,4.30
2023-01-25T09:50:43.012Z,4.30
2023-01-25T09:53:34.621Z,4.30
2023-01-25T09:56:09.761Z,4.30
2023-01-25T09:58:48.143Z,4.50
2023-01-25T10:01:39.032Z,4.50
2023-01-25T10:04:19.109Z,4.30
2023-01-25T10:07:11.376Z,4.40
2023-01-25T10:09:53.248Z,4.50
2023-01-25T10:12:27.560Z,4.50
2023-01-25T10:15:07.953Z,4.50
2023-01-25T10:17:40.061Z,4.40
2023-01-25T10:20:53.793Z,4.20
2023-01-25T10:23:43.571Z,4.20
2023-01-25T10:26:20.753Z,4.20
2023-01-25T10:28:57.979Z,4.20
2023-01-25T10:31:35.415Z,4.30
2023-01-25T10:34:07.684Z,4.30
2023-01-25T10:36:36.773Z,4.40
2023-01-25T10:39:11.053Z,4.50
2023-01-25T10:41:47.462Z,4.40
2023-01-25T10:44:26.034Z,4.50
2023-01-25T10:47:00.707Z,4.50
2023-01-25T10:49:40.917Z,4.40
2023-01-25T10:52:24.869Z,4.40
2023-01-25T10:55:13.272Z,4.40
2023-01-25T10:57:49.393Z,4.40
2023-01-25T11:00:36.333Z,4.40
2023-01-25T11:03:06.888Z,4.40
2023-01-25T11:05:39.602Z,4.50
2023-01-25T11:08:26.011Z,4.50
2023-01-25T11:10:55.193Z,4.50
2023-01-25T11:13:29.033Z,4.40
2023-01-25T11:16:26.973Z,4.40
2023-01-25T11:19:04.522Z,4.50
2023-01-25T11:21:35.956Z,4.50
2023-01-25T11:24:16.899Z,4.50
2023-01-25T11:26:46.067Z,4.50
2023-01-25T11:29:22.624Z,4.50
2023-01-25T11:32:07.529Z,4.50
2023-01-25T11:34:50.662Z,4.50
2023-01-25T11:37:34.160Z,4.60
2023-01-25T11:40:16.137Z,4.60
2023-01-25T11:43:05.972Z,4.60
2023-01-25T11:46:01.609Z,4.50
2023-01-25T11:48:57.822Z,4.50
2023-01-25T11:51:33.975Z,4.60
2023-01-25T11:54:33.198Z,4.70
2023-01-25T11:57:07.798Z,4.70
2023-01-25T11:59:53.480Z,5.10
2023-01-25T12:03:08.025Z,5.20
2023-01-25T12:05:51.813Z,5.10
2023-01-25T12:08:37.328Z,5.00
2023-01-25T12:11:13.839Z,5.00
2023-01-25T12:13:48.504Z,5.00
2023-01-25T12:16:31.327Z,5.00
2023-01-25T12:19:25.512Z,5.00
2023-01-25T12:22:13.553Z,5.00
2023-01-25T12:24:53.543Z,4.90
2023-01-25T12:27:33.089Z,4.80
2023-01-25T12:30:17.519Z,4.90
2023-01-25T12:32:57.307Z,4.90
2023-01-25T12:35:40.798Z,4.80
2023-01-25T12:38:17.891Z,4.70
2023-01-25T12:40:58.129Z,4.70
2023-01-25T12:43:30.281Z,4.70
2023-01-25T12:46:00.058Z,4.80
2023-01-25T12:48:32.603Z,4.70
2023-01-25T12:51:01.700Z,4.80
2023-01-25T12:53:40.594Z,4.90
2023-01-25T12:56:19.517Z,4.90
2023-01-25T12:58:51.781Z,4.90
2023-01-25T13:01:24.870Z,4.80
2023-01-25T13:04:08.191Z,4.80
2023-01-25T13:06:59.099Z,4.70
2023-01-25T13:09:30.200Z,4.80
2023-01-25T13:12:01.309Z,4.80
2023-01-25T13:14:31.838Z,4.60
2023-01-25T13:17:27.273Z,4.50
2023-01-25T13:19:56.662Z,4.40
2023-01-25T13:22:58.871Z,4.50
2023-01-25T13:25:30.023Z,4.60
2023-01-25T13:28:31.670Z,4.60
2023-01-25T13:31:01.862Z,4.70
2023-01-25T13:33:39.269Z,4.70
2023-01-25T13:36:46.799Z,4.80
2023-01-25T13:39:41.473Z,4.80
2023-01-25T13:42:21.641Z,4.90
2023-01-25T13:44:52.073Z,4.80
2023-01-25T13:47:24.361Z,4.80
2023-01-25T13:49:58.537Z,4.80
2023-01-25T13:52:31.124Z,4.70
2023-01-25T13:55:00.405Z,4.60
2023-01-25T13:57:30.550Z,4.60
2023-01-25T14:00:11.309Z,4.60
2023-01-25T14:02:42.870Z,4.70
2023-01-25T14:05:19.450Z,4.80
2023-01-25T14:07:49.915Z,4.80
2023-01-25T14:10:23.692Z,4.90
2023-01-25T14:12:53.111Z,4.90
2023-01-25T14:15:24.327Z,4.90
2023-01-25T14:18:13.325Z,4.90
2023-01-25T14:20:42.241Z,4.90
2023-01-25T14:23:24.825Z,4.80
2023-01-25T14:25:54.909Z,4.80
2023-01-25T14:28:23.649Z,4.80
2023-01-25T14:30:53.260Z,4.80
2023-01-25T14:33:26.102Z,4.80
2023-01-25T14:36:00.095Z,4.80
2023-01-25T14:38:34.983Z,4.80
2023-01-25T14:41:09.002Z,4.80
2023-01-25T14:43:38.501Z,4.80
2023-01-25T14:46:24.601Z,4.80
2023-01-25T14:49:08.528Z,4.80
2023-01-25T14:51:42.127Z,4.70
2023-01-25T14:54:17.937Z,4.70
2023-01-25T14:56:48.323Z,4.70
2023-01-25T14:59:30.899Z,4.70
2023-01-25T15:02:03.935Z,4.70
2023-01-25T15:04:35.579Z,4.70
2023-01-25T15:07:16.730Z,4.70
2023-01-25T15:10:02.497Z,4.70
2023-01-25T15:12:33.059Z,4.60
2023-01-25T15:15:05.506Z,4.50
2023-01-25T15:17:49.215Z,4.50
2023-01-25T15:20:40.714Z,4.40
2023-01-25T15:23:23.756Z,4.40
2023-01-25T15:25:56.258Z,4.40
2023-01-25T15:28:28.268Z,4.40
2023-01-25T15:30:59.604Z,4.50
2023-01-25T15:33:32.457Z,4.50
2023-01-25T15:36:02.342Z,4.50
2023-01-25T15:38:36.770Z,4.50
2023-01-25T15:41:08.852Z,4.50
2023-01-25T15:43:40.111Z,4.50
2023-01-25T15:46:15.422Z,4.50
2023-01-25T15:48:46.616Z,4.50
2023-01-25T15:51:23.581Z,4.50
2023-01-25T15:56:27.755Z,4.40
2023-01-25T15:58:58.107Z,4.40
2023-01-25T16:01:28.184Z,4.40
2023-01-25T16:03:57.277Z,4.40
2023-01-25T16:06:34.060Z,4.40
2023-01-25T16:09:04.837Z,4.20
2023-01-25T16:11:36.667Z,4.30
2023-01-25T16:14:05.353Z,4.40
2023-01-25T16:16:35.681Z,4.40
2023-01-25T16:19:04.637Z,4.50
2023-01-25T16:21:35.006Z,4.50
2023-01-25T16:24:03.860Z,4.50
2023-01-25T16:26:32.575Z,4.50
2023-01-25T16:29:01.239Z,4.50
2023-01-25T16:31:33.105Z,4.60
2023-01-25T16:34:02.567Z,4.60
2023-01-25T16:36:32.025Z,4.60
2023-01-25T16:39:09.884Z,4.60
2023-01-25T16:41:38.908Z,4.60
2023-01-25T16:44:07.822Z,4.60
2023-01-25T16:46:36.613Z,4.70
2023-01-25T16:49:07.173Z,4.70
2023-01-25T16:51:36.507Z,4.70
2023-01-25T16:54:06.975Z,4.70
2023-01-25T16:56:35.619Z,4.70
2023-01-25T16:59:06.339Z,4.70
2023-01-25T17:01:35.263Z,4.70
2023-01-25T17:04:04.190Z,4.60
2023-01-25T17:06:35.191Z,4.60
2023-01-25T17:09:21.548Z,4.50
2023-01-25T17:11:51.416Z,4.40
2023-01-25T17:14:20.433Z,4.40
2023-01-25T17:16:51.560Z,4.30
2023-01-25T17:19:21.054Z,4.30
2023-01-25T17:21:49.653Z,4.30
2023-01-25T17:24:22.277Z,4.20
2023-01-25T17:26:51.405Z,4.20
2023-01-25T17:29:19.948Z,4.20
2023-01-25T17:31:48.812Z,4.10
2023-01-25T17:34:19.354Z,4.10
2023-01-25T17:36:48.205Z,4.10
2023-01-25T17:39:17.761Z,4.10
2023-01-25T17:41:49.096Z,4.10
2023-01-25T17:44:21.204Z,4.10
2023-01-25T17:46:50.999Z,4.10
2023-01-25T17:49:22.089Z,4.10
2023-01-25T17:51:50.678Z,4.10
2023-01-25T17:54:19.762Z,4.00
2023-01-25T17:56:49.720Z,4.00
2023-01-25T17:59:18.505Z,4.00
2023-01-25T18:01:47.097Z,4.00
2023-01-25T18:04:17.726Z,4.00
2023-01-25T18:06:46.474Z,4.00
2023-01-25T18:09:15.109Z,4.00
2023-01-25T18:11:43.640Z,4.00
2023-01-25T18:14:16.954Z,4.00
2023-01-25T18:16:46.176Z,4.10
2023-01-25T18:19:15.080Z,4.10
2023-01-25T18:21:43.811Z,4.10
2023-01-25T18:24:27.411Z,4.00
2023-01-25T18:27:05.267Z,4.00
2023-01-25T18:29:49.043Z,3.90
2023-01-25T18:32:17.608Z,3.80
2023-01-25T18:34:48.169Z,3.80
2023-01-25T18:37:20.821Z,3.90
2023-01-25T18:39:51.467Z,3.90
2023-01-25T18:42:20.799Z,3.90
2023-01-25T18:44:51.286Z,4.00
2023-01-25T18:47:27.719Z,4.00
2023-01-25T18:49:56.372Z,4.10
2023-01-25T18:52:25.230Z,4.10
2023-01-25T18:54:54.064Z,4.10
2023-01-25T18:57:22.700Z,4.10
2023-01-25T18:59:52.715Z,4.10
2023-01-25T19:02:22.939Z,4.10
2023-01-25T19:04:51.584Z,4.10
2023-01-25T19:07:20.185Z,4.10
2023-01-25T19:09:48.756Z,4.10
2023-01-25T19:12:17.377Z,4.10
2023-01-25T19:14:45.995Z,4.10
2023-01-25T19:17:16.028Z,4.20
2023-01-25T19:19:44.600Z,4.20
2023-01-25T19:22:13.230Z,4.20
2023-01-25T19:24:41.803Z,4.20
2023-01-25T19:27:10.371Z,4.20
2023-01-25T19:29:39.060Z,4.20
2023-01-25T19:32:07.850Z,4.30
2023-01-25T19:34:38.011Z,4.30
2023-01-25T19:37:06.978Z,4.30
2023-01-25T19:39:35.924Z,4.30
2023-01-25T19:42:04.609Z,4.30
2023-01-25T19:44:33.113Z,4.20
2023-01-25T19:47:01.600Z,4.20
2023-01-25T19:49:30.233Z,4.10
2023-01-25T19:52:00.133Z,4.10
2023-01-25T19:54:29.095Z,4.10
2023-01-25T19:56:58.539Z,4.00
2023-01-25T19:59:28.931Z,4.00
2023-01-25T20:01:57.697Z,4.00
2023-01-25T20:04:26.552Z,4.00
2023-01-25T20:06:55.106Z,4.00
2023-01-25T20:09:28.798Z,3.90
2023-01-25T20:11:58.284Z,4.00
2023-01-25T20:14:26.903Z,4.00
2023-01-25T20:16:55.500Z,3.90
2023-01-25T20:19:24.110Z,3.90
2023-01-25T20:21:52.837Z,4.00
2023-01-25T20:24:21.424Z,4.00
2023-01-25T20:26:52.468Z,3.90
2023-01-25T20:29:21.528Z,3.90
2023-01-25T20:31:50.186Z,3.90
2023-01-25T20:34:20.724Z,4.00
2023-01-25T20:36:50.219Z,4.00
2023-01-25T20:39:20.985Z,4.00
2023-01-25T20:41:53.397Z,3.90
2023-01-25T20:44:22.294Z,4.00
2023-01-25T20:46:53.066Z,3.90
2023-01-25T20:49:21.746Z,4.00
2023-01-25T20:51:50.493Z,3.90
2023-01-25T20:54:20.706Z,3.80
2023-01-25T20:56:50.714Z,3.70
2023-01-25T20:59:19.461Z,3.70
2023-01-25T21:01:48.305Z,3.70
2023-01-25T21:04:16.955Z,3.80
2023-01-25T21:06:45.562Z,3.80
2023-01-25T21:09:14.314Z,3.80
2023-01-25T21:11:42.885Z,3.90
2023-01-25T21:14:12.974Z,3.90
2023-01-25T21:16:41.512Z,3.90
2023-01-25T21:19:10.140Z,3.90
2023-01-25T21:21:38.710Z,3.90
2023-01-25T21:24:08.123Z,3.90
2023-01-25T21:26:38.334Z,3.90
2023-01-25T21:29:07.745Z,3.90
2023-01-25T21:31:44.028Z,3.90
2023-01-25T21:34:12.568Z,3.90
2023-01-25T21:36:41.144Z,3.90
2023-01-25T21:39:10.770Z,3.90
2023-01-25T21:41:39.279Z,4.00
2023-01-25T21:44:25.336Z,4.00
2023-01-25T21:47:23.562Z,4.00
2023-01-25T21:50:02.934Z,4.10
2023-01-25T21:52:31.450Z,4.10
2023-01-25T21:55:00.767Z,4.80
2023-01-25T21:57:29.219Z,5.60
2023-01-25T21:59:57.937Z,6.40
2023-01-25T22:02:28.359Z,7.10
2023-01-25T22:04:56.969Z,7.70
2023-01-25T22:07:25.513Z,8.10
2023-01-25T22:09:53.968Z,8.50
2023-01-25T22:12:22.481Z,8.40
2023-01-25T22:14:51.035Z,8.10
2023-01-25T22:17:22.545Z,7.80
2023-01-25T22:19:52.441Z,7.40
2023-01-25T22:22:21.197Z,7.10
2023-01-25T22:24:49.879Z,7.00
2023-01-25T22:27:33.582Z,7.10
2023-01-25T22:30:02.137Z,7.20
2023-01-25T22:32:30.646Z,7.30
2023-01-25T22:35:00.550Z,7.40
2023-01-25T22:37:29.055Z,7.40
2023-01-25T22:39:58.615Z,7.30
2023-01-25T22:42:27.293Z,7.10
2023-01-25T22:44:55.852Z,7.10
2023-01-25T22:47:24.418Z,7.00
2023-01-25T22:49:52.952Z,6.90
2023-01-25T22:52:23.339Z,7.00
2023-01-25T22:54:51.894Z,6.90
2023-01-25T22:57:20.415Z,6.80
2023-01-25T22:59:49.072Z,6.70
2023-01-25T23:02:17.593Z,6.70
2023-01-25T23:04:46.250Z,6.60
2023-01-25T23:07:18.938Z,6.50
2023-01-25T23:09:51.603Z,6.40
2023-01-25T23:12:20.558Z,6.30
2023-01-25T23:14:51.625Z,6.20
2023-01-25T23:17:38.753Z,6.10
2023-01-25T23:20:09.190Z,6.10
2023-01-25T23:22:38.171Z,6.10
2023-01-25T23:25:10.002Z,6.10
2023-01-25T23:27:38.656Z,6.40
2023-01-25T23:30:09.268Z,6.50
2023-01-25T23:32:38.159Z,6.50
2023-01-25T23:35:07.570Z,6.40
2023-01-25T23:37:36.128Z,6.50
2023-01-25T23:40:05.299Z,6.50
2023-01-25T23:42:35.196Z,6.40
2023-01-25T23:45:03.725Z,6.40
2023-01-25T23:47:32.246Z,6.40
2023-01-25T23:50:00.771Z,6.40
2023-01-25T23:52:29.391Z,6.30
2023-01-25T23:54:57.939Z,6.20
2023-01-25T23:57:26.558Z,6.20
2023-01-25T23:59:56.498Z,6.20
